This is the latest recevied weather packets stored in our database for station/object KSRR. If no packets are shown the sender has not sent any weather packets the latest 10 day(s).
| Time | Temp. | Humidity | Pressure | Rain* | Wind** | Luminosity | Snow |
|---|---|---|---|---|---|---|---|
| 1777481624 | 13.89° C | 24% | 1022.4 hPa | - | - | - | - |
| 1777481021 | 13.89° C | 24% | 1022.4 hPa | - | - | - | - |
| 1777480426 | 12.78° C | 28% | 1022.4 hPa | - | - | - | - |
| 1777479824 | 12.78° C | 28% | 1022.4 hPa | - | - | - | - |
| 1777479220 | 11.67° C | 30% | 1022.4 hPa | - | - | - | - |
| 1777478624 | 11.67° C | 30% | 1022.4 hPa | - | - | - | - |
| 1777478023 | 11.67° C | 30% | 1022.4 hPa | - | - | - | - |
| 1777477422 | 11.67° C | 30% | 1022.4 hPa | - | - | - | - |
| 1777476826 | 10.56° C | 32% | 1022.4 hPa | - | - | - | - |
| 1777476225 | 10.56° C | 32% | 1022.4 hPa | - | - | - | - |
| 1777475621 | 10.56° C | 34% | 1022.4 hPa | - | - | - | - |
| 1777475024 | 10.56° C | 34% | 1022.4 hPa | - | - | - | - |
| 1777474423 | 10° C | 37% | 1022.7 hPa | - | - | - | - |
| 1777473825 | 10° C | 37% | 1022.7 hPa | - | - | - | - |
| 1777472625 | 8.89° C | 36% | 1022.7 hPa | - | - | - | - |
| 1777472021 | 8.89° C | 36% | 1022.7 hPa | - | - | - | - |
| 1777471421 | 8.89° C | 36% | 1022.7 hPa | - | - | - | - |
| 1777470821 | 8.89° C | 29% | 1022.4 hPa | - | - | - | - |
| 1777470219 | 8.89° C | 29% | 1022.4 hPa | - | - | - | - |
| 1777469622 | 10° C | 25% | 1022.4 hPa | - | - | - | - |
| 1777469023 | 10° C | 25% | 1022.4 hPa | - | - | - | - |
| 1777468419 | 12.78° C | 12% | 1022 hPa | - | - | - | - |
| 1777467821 | 12.78° C | 12% | 1022 hPa | - | - | - | - |
| 1777467222 | 11.67° C | 13% | 1021.7 hPa | - | - | - | - |
| 1777466620 | 11.67° C | 13% | 1021.7 hPa | - | - | - | - |
* Rain since midnight (hover to see other rain measurements)
** Current wind speed in m/s (hover to see current wind gust speed)